Time;durP1;ratioP1;P1;durP2;ratioP2;P2;SDS_P1;SDS_P2;PMS_P1;PMS_P2;Temp;Humidity;BMP_temperature;BMP_pressure;BME280_temperature;BME280_humidity;BME280_pressure;Samples;Min_cycle;Max_cycle;Signal;HPM_P1;HPM_P2
2022/08/05 00:01:41;;;;;;;4.63;2.25;;;25.00;54.90;;;24.41;58.58;95733.03;4948365;28;20114;-67
2022/08/05 00:04:06;;;;;;;4.38;2.70;;;25.00;54.90;;;24.39;58.88;95729.81;4932010;28;20035;-67
2022/08/05 00:06:32;;;;;;;5.07;2.55;;;25.00;55.30;;;24.36;59.63;95725.81;4944283;28;20667;-67
2022/08/05 00:08:59;;;;;;;6.18;2.55;;;24.90;55.80;;;24.31;59.65;95720.50;4948338;28;20459;-67
2022/08/05 00:11:24;;;;;;;3.88;2.50;;;24.90;56.10;;;24.31;60.23;95722.38;4937185;28;20421;-66
2022/08/05 00:13:50;;;;;;;3.47;2.35;;;24.80;56.00;;;24.27;60.25;95711.38;4963618;28;20049;-67
2022/08/05 00:16:16;;;;;;;3.20;2.38;;;24.80;56.00;;;24.23;60.01;95715.72;4947711;28;20407;-67
2022/08/05 00:18:46;;;;;;;3.97;2.30;;;24.80;56.00;;;24.21;60.67;95707.13;4961462;28;20055;-67
2022/08/05 00:21:12;;;;;;;3.92;2.40;;;24.80;56.00;;;24.18;60.30;95712.25;4947587;28;20042;-67
2022/08/05 00:23:38;;;;;;;6.30;3.03;;;24.80;56.20;;;24.17;60.17;95706.09;4916587;28;20027;-67
2022/08/05 00:26:04;;;;;;;4.50;2.97;;;24.70;55.30;;;24.17;60.22;95708.78;4947098;28;20102;-67
2022/08/05 00:28:30;;;;;;;4.47;2.90;;;24.80;55.50;;;24.14;59.57;95710.16;4932571;29;20043;-67
2022/08/05 00:30:56;;;;;;;4.68;2.70;;;24.70;55.50;;;24.15;59.76;95713.63;4953023;28;20113;-67
2022/08/05 00:33:22;;;;;;;7.43;2.90;;;24.80;55.60;;;24.14;60.17;95706.66;4950790;28;20067;-67
2022/08/05 00:35:47;;;;;;;5.95;3.05;;;24.70;55.70;;;24.17;60.56;95710.66;4963844;28;20103;-67
2022/08/05 00:38:13;;;;;;;5.28;3.10;;;24.70;55.80;;;24.16;60.07;95704.50;4950849;28;20087;-67
2022/08/05 00:40:47;;;;;;;6.72;3.30;;;24.80;56.10;;;24.13;61.69;95702.38;4952638;28;20106;-66
2022/08/05 00:43:13;;;;;;;5.93;3.28;;;24.70;56.10;;;24.13;60.67;95702.38;4950884;28;20028;-67
2022/08/05 00:45:38;;;;;;;4.70;3.20;;;24.80;56.40;;;24.11;60.88;95710.72;4951612;28;20035;-67
2022/08/05 00:48:11;;;;;;;6.55;3.20;;;24.70;56.60;;;24.10;60.83;95706.44;4948094;28;20117;-67
2022/08/05 00:50:39;;;;;;;4.38;3.00;;;24.70;56.80;;;24.09;61.83;95704.84;4951084;28;20122;-67
2022/08/05 00:53:05;;;;;;;7.10;3.00;;;24.60;57.00;;;24.07;62.14;95693.56;4967139;28;20090;-67
2022/08/05 00:55:31;;;;;;;4.05;2.88;;;24.70;57.20;;;24.02;61.89;95696.31;4951613;28;20079;-67
2022/08/05 00:57:56;;;;;;;7.55;3.13;;;24.60;57.30;;;24.00;61.88;95695.00;4967063;28;20581;-67
2022/08/05 01:00:22;;;;;;;5.03;3.08;;;24.60;57.20;;;24.00;62.05;95697.69;4926405;29;20035;-67
2022/08/05 01:02:48;;;;;;;6.82;3.30;;;24.60;57.30;;;23.98;62.16;95697.16;4919132;28;20673;-67
2022/08/05 01:05:14;;;;;;;4.03;2.83;;;24.50;57.30;;;23.93;61.57;95698.00;4951838;28;20038;-67
2022/08/05 01:07:41;;;;;;;4.00;2.83;;;24.50;57.00;;;23.87;62.07;95691.06;4933839;28;20059;-67
2022/08/05 01:10:07;;;;;;;5.20;2.88;;;24.50;56.90;;;23.83;62.53;95701.59;4950866;28;20043;-67
2022/08/05 01:12:33;;;;;;;8.55;2.90;;;24.40;57.20;;;23.78;62.11;95693.59;4931540;28;20587;-66
2022/08/05 01:15:03;;;;;;;4.57;3.08;;;24.40;57.10;;;23.76;62.79;95695.75;4934439;28;20039;-67
2022/08/05 01:17:56;;;;;;;4.55;2.80;;;24.40;57.40;;;23.73;63.52;95696.28;4950003;28;20050;-69
2022/08/05 01:20:51;;;;;;;6.90;2.97;;;24.30;57.60;;;23.67;63.52;95694.75;4950296;28;20036;-67
2022/08/05 01:24:04;;;;;;;7.00;3.10;;;24.20;58.10;;;23.61;63.83;95698.56;4934266;28;20046;-67
2022/08/05 01:27:16;;;;;;;4.68;2.78;;;24.20;58.30;;;23.56;64.08;95706.66;4953662;28;20073;-67
2022/08/05 01:29:46;;;;;;;6.22;2.90;;;24.20;58.60;;;23.50;63.55;95708.53;4924485;28;20564;-67
2022/08/05 01:32:14;;;;;;;6.07;3.22;;;24.10;58.90;;;23.46;63.18;95707.50;4949883;28;20051;-67
2022/08/05 01:35:14;;;;;;;6.43;2.88;;;24.10;59.10;;;23.45;65.34;95705.09;4934415;28;20035;-67
2022/08/05 01:37:49;;;;;;;6.30;3.30;;;24.10;59.00;;;23.43;64.93;95704.56;4938753;28;20041;-67
2022/08/05 01:40:14;;;;;;;7.47;3.72;;;24.00;59.00;;;23.41;64.82;95704.03;4949790;28;20123;-67
2022/08/05 01:42:41;;;;;;;4.57;3.05;;;24.00;59.70;;;23.38;64.64;95702.72;4935007;29;20036;-67
2022/08/05 01:45:07;;;;;;;5.30;3.63;;;24.00;59.90;;;23.33;65.53;95701.97;4950839;28;20668;-66
2022/08/05 01:47:34;;;;;;;4.82;3.50;;;24.00;59.70;;;23.29;65.49;95698.22;4934909;28;20047;-67
2022/08/05 01:50:02;;;;;;;6.03;2.97;;;23.90;59.70;;;23.27;65.52;95703.84;4950620;28;20379;-66
2022/08/05 01:52:27;;;;;;;5.43;2.92;;;23.90;59.80;;;23.25;65.80;95699.84;4933484;28;20590;-66
2022/08/05 01:54:56;;;;;;;4.15;3.00;;;23.90;60.00;;;23.21;65.71;95696.94;4950082;28;20038;-67
2022/08/05 01:57:28;;;;;;;7.50;3.38;;;23.70;60.10;;;23.15;66.34;95693.50;4965454;28;20043;-67
2022/08/05 01:59:57;;;;;;;4.97;3.05;;;23.70;60.10;;;23.13;66.11;95692.97;4964781;28;20537;-67
2022/08/05 02:02:23;;;;;;;6.22;3.42;;;23.70;60.20;;;23.10;65.85;95690.84;4933851;28;20135;-67
2022/08/05 02:04:49;;;;;;;5.38;3.35;;;23.70;60.00;;;23.07;66.08;95698.63;4950339;28;20035;-67
2022/08/05 02:07:14;;;;;;;6.00;3.38;;;23.60;59.80;;;23.01;65.54;95699.72;4950315;28;20089;-67
2022/08/05 02:09:40;;;;;;;9.00;3.80;;;23.60;59.50;;;22.94;65.74;95699.25;4949645;28;20051;-66
2022/08/05 02:12:11;;;;;;;4.88;3.15;;;23.50;59.60;;;22.88;65.63;95706.53;4966193;28;20042;-67
2022/08/05 02:14:43;;;;;;;11.35;7.63;;;23.50;59.80;;;22.83;66.37;95709.22;4965971;28;20031;-67
2022/08/05 02:17:34;;;;;;;18.65;14.43;;;23.50;60.30;;;22.77;66.20;95710.28;4948378;28;20036;-67
2022/08/05 02:20:03;;;;;;;16.70;12.32;;;23.40;60.70;;;22.71;66.61;95711.41;4942916;28;20042;-67
2022/08/05 02:23:00;;;;;;;6.18;4.55;;;23.40;61.00;;;22.67;68.37;95711.16;4950086;28;20250;-67
2022/08/05 02:25:29;;;;;;;5.40;3.47;;;23.30;61.30;;;22.61;67.06;95715.69;4947909;28;20078;-66
2022/08/05 02:27:55;;;;;;;5.40;3.70;;;23.20;61.60;;;22.58;67.22;95713.56;4964339;28;20510;-67
2022/08/05 02:30:21;;;;;;;41.95;32.95;;;23.20;61.60;;;22.53;67.42;95704.75;4953060;28;20034;-66
2022/08/05 02:32:50;;;;;;;16.13;12.40;;;23.20;61.90;;;22.48;68.57;95710.94;4919847;29;20027;-67
2022/08/05 02:35:19;;;;;;;21.08;16.92;;;23.10;62.00;;;22.46;68.97;95715.78;4919816;29;20046;-67
2022/08/05 02:37:44;;;;;;;15.00;10.75;;;23.10;62.10;;;22.42;68.29;95706.69;4966308;28;20575;-67
2022/08/05 02:40:10;;;;;;;7.50;5.78;;;23.10;62.10;;;22.42;68.58;95714.72;4950318;28;20051;-67
2022/08/05 02:42:36;;;;;;;7.55;4.30;;;23.10;62.20;;;22.38;68.81;95713.63;4938951;28;20070;-67
2022/08/05 02:45:02;;;;;;;8.50;4.03;;;23.10;62.40;;;22.37;69.44;95711.22;4948821;28;20059;-67
2022/08/05 02:47:29;;;;;;;7.50;4.30;;;23.00;62.40;;;22.33;68.91;95708.31;4942011;28;20043;-67
2022/08/05 02:49:55;;;;;;;5.35;4.18;;;23.00;62.60;;;22.29;68.87;95697.34;4964559;28;20043;-67
2022/08/05 02:52:21;;;;;;;9.90;8.65;;;23.00;62.80;;;22.25;69.50;95704.31;4948433;28;20085;-67
2022/08/05 02:54:47;;;;;;;11.27;8.07;;;22.90;63.00;;;22.23;69.59;95702.97;4917681;28;20039;-67
2022/08/05 02:57:15;;;;;;;19.75;14.93;;;22.90;63.00;;;22.22;70.46;95704.06;4947942;28;20114;-66
2022/08/05 02:59:42;;;;;;;22.73;16.17;;;22.90;63.20;;;22.18;70.23;95708.34;4932782;28;20491;-67
2022/08/05 03:02:08;;;;;;;32.40;28.90;;;22.80;63.40;;;22.16;70.53;95708.59;4966034;28;20701;-67
2022/08/05 03:04:34;;;;;;;26.20;21.17;;;22.80;63.50;;;22.14;70.54;95707.28;4948412;28;20510;-67
2022/08/05 03:07:00;;;;;;;16.25;13.48;;;22.80;63.70;;;22.10;70.96;95703.53;4949904;28;20098;-67
2022/08/05 03:09:25;;;;;;;8.57;6.22;;;22.80;63.80;;;22.07;71.43;95707.56;4948183;28;20051;-66
2022/08/05 03:11:51;;;;;;;7.20;6.38;;;22.80;63.90;;;22.06;71.31;95710.50;4933408;28;20039;-67
2022/08/05 03:14:17;;;;;;;15.32;11.70;;;22.80;64.00;;;22.05;71.51;95701.69;4946610;28;20036;-67
2022/08/05 03:16:42;;;;;;;9.88;5.47;;;22.80;64.00;;;22.01;71.70;95704.06;4934659;28;20460;-67
2022/08/05 03:19:08;;;;;;;6.13;4.25;;;22.80;64.20;;;21.99;72.15;95705.41;4965038;28;20552;-67
2022/08/05 03:21:34;;;;;;;8.65;5.18;;;22.70;64.30;;;21.98;72.08;95704.63;4949610;28;20066;-67
2022/08/05 03:24:00;;;;;;;9.63;8.13;;;22.70;64.40;;;21.97;72.61;95704.88;4948497;28;20039;-67
2022/08/05 03:26:26;;;;;;;8.18;5.70;;;22.70;64.50;;;21.94;72.21;95703.53;4932568;29;20082;-66
2022/08/05 03:28:51;;;;;;;6.60;4.40;;;22.60;64.70;;;21.94;72.99;95702.72;4916147;29;20034;-67
2022/08/05 03:31:17;;;;;;;19.10;16.20;;;22.60;64.80;;;21.91;72.97;95698.72;4945931;28;20039;-66
2022/08/05 03:33:43;;;;;;;10.02;8.57;;;22.60;65.00;;;21.89;72.95;95703.53;4947277;28;20046;-65
2022/08/05 03:36:09;;;;;;;17.95;14.43;;;22.60;65.20;;;21.85;73.16;95693.63;4948254;28;20050;-66
2022/08/05 03:38:39;;;;;;;12.18;10.77;;;22.60;65.20;;;21.83;73.94;95695.78;4948200;28;20959;-67
2022/08/05 03:41:05;;;;;;;8.32;4.97;;;22.60;65.20;;;21.80;73.70;95688.28;4956987;28;20403;-66
2022/08/05 03:43:32;;;;;;;8.02;4.30;;;22.50;65.30;;;21.79;73.74;95684.00;4946656;28;20042;-67
2022/08/05 03:45:57;;;;;;;9.02;4.47;;;22.50;65.40;;;21.77;73.88;95689.63;4948530;28;20395;-68
2022/08/05 03:48:23;;;;;;;7.10;4.18;;;22.50;65.50;;;21.74;73.90;95682.16;4963210;28;20035;-68
2022/08/05 03:51:14;;;;;;;5.13;4.10;;;22.50;65.60;;;21.71;75.60;95686.16;4949029;28;20062;-68
2022/08/05 03:53:48;;;;;;;6.32;4.03;;;22.40;65.90;;;21.71;75.31;95693.38;4945392;28;20518;-67
2022/08/05 03:56:28;;;;;;;5.47;4.30;;;22.50;66.10;;;21.71;75.76;95683.47;4948372;28;20036;-67
2022/08/05 03:58:56;;;;;;;;;;;22.50;66.20;;;21.68;76.46;95684.00;4949352;28;20032;-68
2022/08/05 04:01:21;;;;;;;5.45;4.30;;;22.50;66.30;;;21.66;74.30;95685.34;4932106;28;20370;-68
2022/08/05 04:03:48;;;;;;;7.15;4.10;;;22.40;66.40;;;21.65;74.95;95689.91;4935751;28;20137;-68
2022/08/05 04:06:14;;;;;;;5.78;4.70;;;22.50;66.40;;;21.66;75.38;95693.38;4949645;28;20027;-68
2022/08/05 04:08:40;;;;;;;4.63;3.88;;;22.40;66.60;;;21.64;75.44;95687.50;4950710;28;20579;-68
2022/08/05 04:11:06;;;;;;;6.00;4.10;;;22.40;66.60;;;21.62;75.24;95690.44;4947625;28;20412;-68
2022/08/05 04:13:32;;;;;;;6.65;4.53;;;22.40;66.80;;;21.63;76.29;95696.59;4950559;28;20047;-67
2022/08/05 04:15:57;;;;;;;6.00;4.22;;;22.40;66.70;;;21.61;76.21;95694.19;4952612;28;20408;-68
2022/08/05 04:18:23;;;;;;;4.63;4.10;;;22.40;66.70;;;21.63;76.09;95699.28;4931075;28;20027;-68
2022/08/05 04:20:56;;;;;;;6.90;4.15;;;22.40;66.80;;;21.62;76.75;95706.50;4950217;28;20039;-67
2022/08/05 04:23:26;;;;;;;6.40;4.25;;;22.30;67.00;;;21.58;76.97;95712.66;4967994;28;20086;-68
2022/08/05 04:25:51;;;;;;;4.65;4.10;;;22.30;67.30;;;21.51;76.66;95712.13;4935463;28;20043;-68
2022/08/05 04:28:18;;;;;;;7.32;4.00;;;22.20;67.40;;;21.48;77.07;95716.13;4949782;28;20590;-67
2022/08/05 04:30:44;;;;;;;8.00;4.38;;;22.20;67.60;;;21.44;77.25;95727.63;4951008;28;20119;-69
2022/08/05 04:33:10;;;;;;;5.28;3.70;;;22.10;67.80;;;21.38;77.71;95749.03;4952327;28;20495;-68
2022/08/05 04:35:36;;;;;;;6.25;4.15;;;22.10;68.10;;;21.32;77.24;95744.75;4951815;28;20051;-68
2022/08/05 04:38:02;;;;;;;6.53;4.38;;;22.00;67.90;;;21.26;78.29;95750.34;4952952;28;20079;-67
2022/08/05 04:40:27;;;;;;;11.93;7.78;;;21.90;68.40;;;21.22;78.36;95747.38;4952173;28;20051;-69
2022/08/05 04:42:53;;;;;;;7.82;5.03;;;22.00;68.60;;;21.20;78.40;95746.81;4951180;28;20061;-68
2022/08/05 04:45:19;;;;;;;4.95;4.20;;;22.00;68.40;;;21.19;78.66;95744.41;4949782;28;20043;-69
2022/08/05 04:47:45;;;;;;;11.18;4.25;;;22.00;68.40;;;21.20;78.74;95746.81;4946724;28;20084;-68
2022/08/05 04:50:10;;;;;;;7.18;3.72;;;22.00;68.60;;;21.18;79.01;95746.28;4935538;29;20110;-67
2022/08/05 04:52:36;;;;;;;6.70;4.50;;;22.00;68.70;;;21.22;79.06;95744.69;4950947;28;20467;-67
2022/08/05 04:55:02;;;;;;;8.45;4.20;;;22.00;68.70;;;21.25;79.35;95749.53;4936220;28;20031;-67
2022/08/05 04:57:27;;;;;;;5.07;3.95;;;22.20;68.50;;;21.27;80.12;95752.75;4951092;28;20086;-67
2022/08/05 04:59:53;;;;;;;8.88;4.10;;;22.10;68.50;;;21.30;79.72;95741.53;4966572;28;20043;-67
2022/08/05 05:02:19;;;;;;;8.80;3.85;;;22.20;68.50;;;21.34;80.06;95742.63;4951829;28;20075;-66
2022/08/05 05:04:45;;;;;;;6.20;4.25;;;22.20;68.30;;;21.37;79.45;95742.09;4947837;28;20083;-67
2022/08/05 05:07:10;;;;;;;6.10;4.00;;;22.30;68.20;;;21.40;79.32;95744.22;4965177;28;20035;-67
2022/08/05 05:09:36;;;;;;;6.38;4.00;;;22.30;68.40;;;21.44;79.82;95746.38;4949745;28;20043;-68
2022/08/05 05:12:02;;;;;;;6.30;4.18;;;22.40;68.30;;;21.49;79.80;95751.72;4949345;28;20841;-63
2022/08/05 05:14:28;;;;;;;4.80;3.90;;;22.50;68.10;;;21.51;79.79;95746.94;4947701;28;20067;-62
2022/08/05 05:16:54;;;;;;;4.78;3.80;;;22.40;68.40;;;21.53;79.67;95760.84;4933581;28;20046;-71
2022/08/05 05:19:19;;;;;;;6.45;4.10;;;22.40;68.30;;;21.56;79.88;95752.28;4948220;28;20062;-72
2022/08/05 05:21:45;;;;;;;5.90;3.78;;;22.50;68.20;;;21.58;80.12;95753.63;4934481;28;20038;-73
2022/08/05 05:24:11;;;;;;;4.90;3.92;;;22.50;68.40;;;21.63;80.37;95766.19;4918524;28;20032;-71
2022/08/05 05:26:37;;;;;;;5.05;3.47;;;22.60;68.00;;;21.69;80.07;95759.75;4918031;28;20082;-72
2022/08/05 05:29:03;;;;;;;13.45;10.88;;;22.60;68.00;;;21.78;80.11;95763.53;4950548;28;20757;-73
2022/08/05 05:31:29;;;;;;;7.93;5.10;;;22.80;67.80;;;21.83;79.68;95763.53;4935799;28;20507;-69
2022/08/05 05:33:55;;;;;;;5.18;4.38;;;22.80;67.20;;;21.91;79.56;95762.97;4931385;29;20043;-69
2022/08/05 05:36:21;;;;;;;6.45;3.72;;;22.90;67.10;;;21.99;79.35;95767.81;4949108;28;20530;-67
2022/08/05 05:38:46;;;;;;;7.05;3.95;;;23.10;66.50;;;22.07;79.03;95766.50;4953636;28;20046;-70
2022/08/05 05:41:12;;;;;;;4.85;3.53;;;23.20;66.40;;;22.17;79.10;95768.34;4951800;28;20352;-69
2022/08/05 05:43:38;;;;;;;6.93;3.40;;;23.30;66.00;;;22.27;78.20;95771.03;4948861;28;20562;-71
2022/08/05 05:46:03;;;;;;;7.07;3.97;;;23.40;65.60;;;22.37;78.14;95776.34;4953367;28;20110;-69
2022/08/05 05:48:29;;;;;;;6.65;3.95;;;23.60;65.40;;;22.48;78.18;95772.59;4933277;28;20491;-67
2022/08/05 05:50:55;;;;;;;4.13;3.55;;;23.80;64.80;;;22.62;77.42;95781.66;4933833;28;20551;-68
2022/08/05 05:53:21;;;;;;;7.85;4.03;;;24.00;63.90;;;22.80;77.39;95771.41;4949724;28;20395;-68
2022/08/05 05:55:46;;;;;;;5.18;3.88;;;24.30;63.60;;;22.95;76.87;95771.38;4916896;28;20031;-69
2022/08/05 05:58:12;;;;;;;4.97;3.67;;;24.50;62.50;;;23.14;76.42;95772.38;4949643;28;20119;-70
2022/08/05 06:00:38;;;;;;;6.22;3.20;;;24.80;61.90;;;23.32;76.30;95754.84;4916799;28;20042;-69
2022/08/05 06:03:03;;;;;;;4.82;3.58;;;25.10;61.60;;;23.53;75.86;95760.84;4945367;28;20110;-68
2022/08/05 06:05:29;;;;;;;4.85;3.55;;;25.30;60.90;;;23.71;74.85;95749.47;4949260;28;20036;-69
2022/08/05 06:07:55;;;;;;;4.28;3.22;;;25.50;60.10;;;23.88;73.44;95761.72;4929463;28;20051;-68
2022/08/05 06:10:21;;;;;;;4.88;3.00;;;25.50;59.50;;;24.00;72.87;95760.28;4948290;28;20039;-70
2022/08/05 06:12:46;;;;;;;6.95;2.90;;;25.50;59.80;;;24.10;72.61;95765.56;4946527;28;20113;-69
2022/08/05 06:15:12;;;;;;;10.02;2.70;;;25.50;59.80;;;24.18;71.59;95761.44;4931987;28;22450;-67
2022/08/05 06:17:38;;;;;;;7.05;3.03;;;25.50;59.00;;;24.25;70.48;95767.31;4946925;28;20036;-68
2022/08/05 06:20:04;;;;;;;5.53;2.80;;;25.50;58.70;;;24.31;69.61;95762.72;4949275;28;20063;-68
2022/08/05 06:22:32;;;;;;;2.88;2.50;;;25.50;58.10;;;24.36;68.92;95763.44;4947745;28;20043;-67
2022/08/05 06:24:58;;;;;;;3.35;2.72;;;25.60;57.50;;;24.39;67.99;95768.25;4955312;28;20514;-67
2022/08/05 06:27:23;;;;;;;3.13;2.58;;;25.60;56.60;;;24.46;67.63;95767.16;4916397;29;20130;-70
2022/08/05 06:29:49;;;;;;;2.88;2.15;;;25.70;56.10;;;24.52;66.79;95764.09;4918430;28;20032;-68
2022/08/05 06:32:15;;;;;;;3.17;2.67;;;25.90;55.80;;;24.63;66.08;95767.47;4964706;28;20125;-68
2022/08/05 06:34:41;;;;;;;3.08;2.30;;;26.10;54.90;;;24.76;65.73;95764.09;4932647;28;20118;-69
2022/08/05 06:37:07;;;;;;;6.25;2.85;;;26.20;54.40;;;24.90;64.99;95758.84;4965273;28;20070;-67
2022/08/05 06:39:32;;;;;;;5.95;2.42;;;26.40;53.40;;;25.03;64.50;95756.25;4952813;28;20114;-68
2022/08/05 06:42:00;;;;;;;3.78;2.95;;;26.60;53.40;;;25.21;64.44;95760.06;4948636;28;20038;-69
2022/08/05 06:44:26;;;;;;;4.80;2.45;;;26.80;53.10;;;25.39;63.38;95763.06;4948139;28;20122;-68
2022/08/05 06:46:52;;;;;;;8.77;2.60;;;27.00;52.30;;;25.54;62.40;95763.63;4900281;29;20036;-69
2022/08/05 06:49:18;;;;;;;12.40;2.70;;;27.10;51.10;;;25.71;61.85;95776.63;4945979;28;20045;-69
2022/08/05 06:51:43;;;;;;;4.53;2.72;;;27.40;51.20;;;25.85;60.91;95771.31;4947452;28;20058;-68
2022/08/05 06:54:09;;;;;;;4.15;2.40;;;27.50;49.90;;;26.01;60.16;95775.34;4948411;28;20039;-68
2022/08/05 06:56:35;;;;;;;5.63;2.70;;;27.70;49.50;;;26.18;59.54;95774.78;4958188;28;20035;-67
2022/08/05 06:59:04;;;;;;;3.70;2.70;;;28.00;49.10;;;26.36;58.55;95775.88;4946969;28;20798;-69
2022/08/05 07:01:30;;;;;;;4.85;2.13;;;28.10;48.50;;;26.55;58.78;95773.91;4947650;28;20043;-70
2022/08/05 07:03:56;;;;;;;3.42;2.33;;;28.50;47.70;;;26.72;58.00;95784.13;4964454;28;20115;-68
2022/08/05 07:06:22;;;;;;;5.93;2.75;;;28.60;47.00;;;26.95;57.42;95788.53;4965003;28;20035;-68
2022/08/05 07:08:47;;;;;;;4.63;2.58;;;29.00;46.50;;;27.20;56.93;95783.72;4964246;28;20079;-69
2022/08/05 07:11:13;;;;;;;4.78;2.63;;;29.40;46.30;;;27.45;56.39;95792.09;4959114;28;20043;-67
2022/08/05 07:19:08;;;;;;;4.20;2.20;;;29.90;43.70;;;28.06;53.43;95789.88;4918860;29;20039;-68
2022/08/05 07:21:33;;;;;;;2.83;2.50;;;29.80;43.70;;;28.16;52.75;95805.09;4962914;28;20039;-71
2022/08/05 07:23:59;;;;;;;3.45;2.28;;;29.80;43.40;;;28.23;52.06;95817.06;4962111;28;20047;-71
2022/08/05 07:26:25;;;;;;;5.10;2.28;;;29.80;43.70;;;28.30;51.40;95817.47;4946471;28;20031;-68
2022/08/05 07:28:51;;;;;;;5.35;2.50;;;29.90;43.10;;;28.35;51.77;95824.66;4932869;28;20153;-70
2022/08/05 07:31:17;;;;;;;6.20;2.60;;;29.90;43.40;;;28.39;51.13;95831.03;4948366;28;20043;-70
2022/08/05 07:33:42;;;;;;;7.07;2.33;;;29.80;43.60;;;28.37;50.89;95827.84;4929955;28;20031;-70
2022/08/05 07:36:08;;;;;;;5.22;2.50;;;29.70;43.50;;;28.35;50.53;95838.19;4946354;28;20414;-67
2022/08/05 07:38:35;;;;;;;6.43;2.78;;;29.70;43.80;;;28.33;50.79;95843.09;4943857;28;20036;-70
2022/08/05 07:41:16;;;;;;;8.27;2.58;;;29.60;43.80;;;28.32;49.68;95847.72;4931809;29;20070;-67
2022/08/05 07:43:42;;;;;;;4.15;3.00;;;29.80;43.70;;;28.41;51.24;95863.19;4958447;28;20465;-68
2022/08/05 07:46:08;;;;;;;6.55;2.90;;;30.20;43.30;;;28.49;50.52;95868.66;4948212;28;20035;-69
2022/08/05 07:48:33;;;;;;;6.25;2.95;;;30.40;43.00;;;28.60;50.54;95864.59;4947610;28;20038;-68
2022/08/05 07:50:59;;;;;;;4.47;2.58;;;30.60;42.20;;;28.78;50.44;95880.94;4944191;28;20031;-67
2022/08/05 07:53:25;;;;;;;3.88;2.78;;;30.90;42.00;;;28.92;50.12;95876.25;4947923;28;20102;-68
2022/08/05 07:55:51;;;;;;;5.32;2.33;;;31.10;41.80;;;29.06;49.80;95876.97;4914928;28;20063;-70
2022/08/05 07:58:16;;;;;;;5.25;2.90;;;31.30;41.60;;;29.24;49.40;95878.63;4962773;28;20589;-68
2022/08/05 08:00:43;;;;;;;7.57;2.90;;;31.50;40.90;;;29.44;49.23;95881.91;4957571;28;20530;-68
2022/08/05 08:03:12;;;;;;;5.38;2.78;;;31.70;41.00;;;29.58;47.81;95877.16;4960254;28;20031;-67
2022/08/05 08:05:39;;;;;;;6.30;2.83;;;31.70;40.10;;;29.71;48.79;95873.53;4958978;28;20035;-69
2022/08/05 08:08:04;;;;;;;4.65;2.80;;;32.00;40.20;;;29.88;48.02;95884.41;4945888;29;20094;-67
2022/08/05 08:10:30;;;;;;;4.93;3.03;;;32.10;39.70;;;29.99;47.70;95884.09;4948347;28;20419;-63
2022/08/05 08:12:56;;;;;;;6.65;3.00;;;32.10;39.40;;;30.08;47.70;95890.34;4915390;29;20419;-68
2022/08/05 08:15:22;;;;;;;5.70;3.00;;;32.10;40.20;;;30.14;47.21;95883.66;4918375;28;20495;-67
2022/08/05 08:17:47;;;;;;;8.80;3.10;;;32.10;39.80;;;30.17;46.55;95904.72;4963377;28;20070;-70
2022/08/05 08:20:13;;;;;;;9.88;3.13;;;32.00;39.60;;;30.16;46.50;95892.28;4947281;28;20031;-68
2022/08/05 08:22:39;;;;;;;6.68;2.67;;;31.80;39.40;;;30.12;45.81;95910.31;4942875;28;20495;-66
2022/08/05 08:25:05;;;;;;;6.70;3.28;;;31.60;39.50;;;30.11;45.63;95908.72;4963025;28;20048;-66
2022/08/05 08:27:31;;;;;;;6.72;2.90;;;31.90;38.80;;;30.16;45.12;95912.06;4917327;29;20414;-71
2022/08/05 08:29:57;;;;;;;5.93;3.08;;;32.10;38.20;;;30.27;44.80;95909.81;4948035;28;20039;-69
2022/08/05 08:32:23;;;;;;;5.93;3.00;;;32.40;37.30;;;30.36;44.25;95901.69;4949604;28;22319;-67
2022/08/05 08:34:49;;;;;;;7.97;2.60;;;32.50;37.60;;;30.52;44.37;95910.13;4948794;28;20117;-67
2022/08/05 08:37:16;;;;;;;3.85;2.72;;;33.00;37.20;;;30.68;44.41;95920.22;4947939;28;20039;-69
2022/08/05 08:39:41;;;;;;;3.75;2.53;;;33.30;35.90;;;30.83;44.06;95915.41;4917029;28;20030;-70
2022/08/05 08:42:08;;;;;;;4.05;2.50;;;33.40;36.30;;;31.00;43.59;95921.56;4944470;28;20360;-70
2022/08/05 08:44:34;;;;;;;5.45;2.42;;;33.60;35.80;;;31.16;42.89;95923.78;4947149;28;20031;-67
2022/08/05 08:47:01;;;;;;;6.82;2.90;;;33.70;35.80;;;31.29;42.96;95918.16;4932160;28;20044;-70
2022/08/05 08:49:27;;;;;;;3.97;2.40;;;34.00;35.20;;;31.51;42.55;95930.72;4946057;28;20538;-71
2022/08/05 08:51:58;;;;;;;15.75;3.15;;;34.20;35.60;;;31.62;41.25;95931.91;4917035;28;20051;-69
2022/08/05 08:54:25;;;;;;;7.03;2.42;;;34.00;34.70;;;31.77;41.96;95933.31;4950332;29;20106;-69
2022/08/05 08:56:50;;;;;;;8.95;2.70;;;34.40;35.10;;;31.96;41.88;95925.53;4937861;28;20050;-72
2022/08/05 08:59:19;;;;;;;5.05;2.60;;;34.60;33.90;;;32.12;39.83;95928.44;4933983;28;20035;-72
2022/08/05 09:01:45;;;;;;;6.65;2.85;;;34.60;33.90;;;32.26;40.56;95931.75;4958751;28;20227;-68
2022/08/05 09:04:11;;;;;;;4.82;2.33;;;34.90;33.60;;;32.47;40.95;95933.66;4963328;28;20036;-68
2022/08/05 09:06:37;;;;;;;4.57;2.35;;;35.30;34.00;;;32.76;40.24;95947.19;4917912;28;20027;-69
2022/08/05 09:09:03;;;;;;;8.07;2.45;;;35.70;33.50;;;33.03;39.67;95934.13;4966920;28;20093;-69
2022/08/05 09:11:29;;;;;;;7.35;2.50;;;36.00;32.50;;;33.25;39.83;95925.53;4964045;28;20094;-68
2022/08/05 09:13:55;;;;;;;7.75;2.65;;;36.20;32.50;;;33.43;39.30;95932.41;4958646;28;20054;-69
2022/08/05 09:16:21;;;;;;;4.60;2.15;;;36.20;31.50;;;33.63;38.85;95938.91;4952527;28;20563;-66
2022/08/05 09:18:47;;;;;;;4.97;2.10;;;36.50;31.50;;;33.88;38.25;95942.44;4933198;28;20614;-67
2022/08/05 09:21:13;;;;;;;6.68;2.25;;;36.90;31.60;;;34.10;37.92;95943.91;4949291;28;20039;-68
2022/08/05 09:23:39;;;;;;;4.78;2.45;;;37.00;30.70;;;34.29;37.13;95952.28;4933174;28;20039;-68
2022/08/05 09:26:23;;;;;;;6.72;2.60;;;36.90;30.10;;;34.48;36.16;95943.50;4950098;28;20515;-68
2022/08/05 09:28:48;;;;;;;5.43;2.40;;;37.40;30.80;;;34.70;36.87;95942.16;4919901;29;20542;-62
2022/08/05 09:31:14;;;;;;;7.15;2.88;;;37.60;29.90;;;34.93;36.46;95945.16;4939581;28;20051;-63
2022/08/05 09:33:54;;;;;;;5.07;2.25;;;37.90;29.90;;;35.13;34.89;95946.88;4933208;28;20046;-61
2022/08/05 09:36:20;;;;;;;;;;;37.90;29.40;;;35.33;34.10;95944.28;4966293;28;20506;-66
2022/08/05 09:39:04;;;;;;;4.32;2.42;;;38.30;28.70;;;35.63;34.11;95944.66;4942901;28;19969;-62
2022/08/05 09:41:30;;;;;;;4.85;2.42;;;38.60;28.40;;;35.90;35.03;95941.03;4941432;28;20121;-67
2022/08/05 09:43:56;;;;;;;4.90;1.90;;;38.90;28.40;;;36.11;34.12;95943.44;4933388;28;20193;-68
2022/08/05 09:46:32;;;;;;;9.80;2.15;;;39.00;27.20;;;36.26;32.73;95945.34;4961753;28;20487;-68
2022/08/05 09:49:03;;;;;;;2.65;1.85;;;39.10;27.40;;;36.51;33.39;95943.19;4946971;28;20122;-68
2022/08/05 09:51:37;;;;;;;6.05;1.77;;;39.70;27.00;;;36.82;31.31;95944.19;4947976;28;20046;-68
2022/08/05 09:54:07;;;;;;;7.63;1.80;;;39.70;26.20;;;36.93;32.34;95942.47;4931863;29;20047;-69
2022/08/05 09:56:36;;;;;;;6.57;1.95;;;40.00;26.40;;;37.11;32.61;95943.56;4962418;28;20130;-69
2022/08/05 09:59:05;;;;;;;5.95;2.00;;;40.30;26.10;;;37.33;31.64;95939.28;4959600;28;20181;-65
2022/08/05 10:01:35;;;;;;;;;;;40.60;25.80;;;37.52;30.16;95950.22;4962778;28;20075;-67
2022/08/05 10:04:09;;;;;;;5.63;2.28;;;40.90;25.00;;;37.60;31.19;95945.66;4950303;28;19922;-66
2022/08/05 10:06:35;;;;;;;8.07;2.08;;;40.80;25.40;;;37.80;31.98;95947.19;4950354;28;20042;-67
2022/08/05 10:09:17;;;;;;;5.07;2.13;;;41.60;24.80;;;37.94;29.22;95957.59;4949017;28;20043;-67
2022/08/05 10:11:43;;;;;;;4.03;1.80;;;41.10;24.30;;;38.15;30.77;95955.16;4964126;28;20031;-67
2022/08/05 10:14:27;;;;;;;5.35;1.88;;;42.10;24.20;;;38.50;28.51;95957.66;4947835;28;20534;-68
2022/08/05 10:16:56;;;;;;;4.45;1.90;;;42.20;23.50;;;38.68;29.71;95959.84;4933277;28;20078;-68
2022/08/05 10:19:22;;;;;;;;;;;42.30;23.50;;;38.80;28.87;95963.13;4956228;28;20027;-68
2022/08/05 10:21:48;;;;;;;3.33;1.70;;;42.60;23.80;;;39.03;29.99;95959.47;4961539;28;19922;-68
2022/08/05 10:24:18;;;;;;;4.97;1.70;;;43.00;22.80;;;39.28;29.17;95963.28;4964284;28;20043;-68
2022/08/05 10:26:45;;;;;;;8.10;1.80;;;43.50;22.90;;;39.50;29.00;95967.84;4957432;28;20126;-64
2022/08/05 10:29:11;;;;;;;4.95;1.90;;;43.90;22.20;;;39.78;29.20;95963.75;4945513;28;20507;-65